Time;durP1;ratioP1;P1;durP2;ratioP2;P2;SDS_P1;SDS_P2;PMS_P1;PMS_P2;Temp;Humidity;BMP_temperature;BMP_pressure;BME280_temperature;BME280_humidity;BME280_pressure;Samples;Min_cycle;Max_cycle;Signal;HPM_P1;HPM_P2
2022/06/20 00:00:49;;;;;;;5.88;1.30;;;14.30;99.90;;;;;;6141396;28;20052;-68
2022/06/20 00:03:52;;;;;;;8.55;1.67;;;14.30;99.90;;;;;;6125758;29;20051;-68
2022/06/20 00:06:54;;;;;;;5.50;1.27;;;14.30;99.90;;;;;;6125612;29;20059;-67
2022/06/20 00:09:57;;;;;;;8.02;1.80;;;14.30;99.90;;;;;;6150094;28;20051;-68
2022/06/20 00:13:01;;;;;;;9.50;2.00;;;14.50;99.90;;;;;;6150937;28;20059;-68
2022/06/20 00:16:03;;;;;;;10.65;1.90;;;14.60;99.90;;;;;;6153027;28;20062;-67
2022/06/20 00:19:05;;;;;;;10.77;1.70;;;14.60;99.90;;;;;;6135128;28;20056;-67
2022/06/20 00:22:07;;;;;;;8.80;1.88;;;14.50;99.90;;;;;;6144959;29;20047;-68
2022/06/20 00:25:11;;;;;;;7.13;1.30;;;14.50;99.90;;;;;;6133928;29;20142;-68
2022/06/20 00:28:14;;;;;;;5.80;1.42;;;14.40;99.90;;;;;;6137479;29;20093;-68
2022/06/20 00:31:16;;;;;;;10.52;1.80;;;14.50;99.90;;;;;;6150552;28;20043;-68
2022/06/20 00:34:18;;;;;;;9.48;1.70;;;14.50;99.90;;;;;;6149066;29;20905;-67
2022/06/20 00:37:21;;;;;;;7.05;1.73;;;14.50;99.90;;;;;;6130402;29;20055;-67
2022/06/20 00:40:31;;;;;;;7.75;1.70;;;14.50;99.90;;;;;;6150117;28;20069;-67
2022/06/20 00:43:38;;;;;;;14.18;2.53;;;14.50;99.90;;;;;;6147241;28;20039;-68
2022/06/20 00:46:43;;;;;;;7.55;1.77;;;14.40;99.90;;;;;;6144888;28;20496;-68
2022/06/20 00:49:57;;;;;;;11.68;1.85;;;14.30;99.90;;;;;;6149537;28;20130;-67
2022/06/20 00:53:04;;;;;;;5.97;1.30;;;14.30;99.90;;;;;;6134461;28;20485;-68
2022/06/20 00:56:14;;;;;;;4.65;1.27;;;14.30;99.90;;;;;;6139564;29;20055;-68
2022/06/20 00:59:21;;;;;;;8.00;1.67;;;14.30;99.90;;;;;;6152814;29;20047;-68
2022/06/20 01:02:27;;;;;;;6.47;1.50;;;14.30;99.90;;;;;;6158901;28;20054;-68
2022/06/20 01:05:35;;;;;;;6.05;1.70;;;14.50;99.90;;;;;;6152627;28;20054;-67
2022/06/20 01:08:42;;;;;;;6.57;2.10;;;14.50;99.90;;;;;;6145656;29;20044;-67
2022/06/20 01:11:48;;;;;;;6.10;1.20;;;14.50;99.90;;;;;;6138076;29;20047;-67
2022/06/20 01:14:50;;;;;;;6.72;1.73;;;14.40;99.90;;;;;;6151359;28;20055;-69
2022/06/20 01:17:52;;;;;;;7.28;1.50;;;14.50;99.90;;;;;;6150279;28;20055;-68
2022/06/20 01:20:57;;;;;;;9.30;2.13;;;14.70;99.90;;;;;;6148878;28;20054;-68
2022/06/20 01:24:11;;;;;;;6.15;2.00;;;14.80;99.90;;;;;;6146625;28;20047;-68
2022/06/20 01:27:21;;;;;;;8.23;1.88;;;14.70;99.90;;;;;;6144374;29;20055;-68
2022/06/20 01:30:28;;;;;;;6.90;1.77;;;14.60;99.90;;;;;;6149718;29;20413;-68
2022/06/20 01:33:31;;;;;;;6.68;1.80;;;14.50;99.90;;;;;;6150332;29;20062;-68
2022/06/20 01:40:08;;;;;;;8.13;2.00;;;14.30;99.90;;;;;;6125839;28;20134;-68
2022/06/20 01:43:10;;;;;;;8.70;2.10;;;14.30;99.90;;;;;;6140637;29;20051;-68
2022/06/20 01:46:14;;;;;;;9.60;1.67;;;14.20;99.90;;;;;;6132035;29;20405;-68
2022/06/20 01:49:21;;;;;;;6.80;1.98;;;14.20;99.90;;;;;;6133348;28;20047;-68
2022/06/20 01:52:27;;;;;;;4.50;1.50;;;14.10;99.90;;;;;;6151018;28;20051;-68
2022/06/20 01:55:31;;;;;;;10.75;2.13;;;14.00;99.90;;;;;;6150236;29;20054;-68
2022/06/20 01:58:37;;;;;;;6.03;1.83;;;14.00;99.90;;;;;;6151134;28;20051;-68
2022/06/20 02:01:39;;;;;;;7.43;1.75;;;13.90;99.90;;;;;;6143662;29;20109;-68
2022/06/20 02:04:42;;;;;;;11.70;2.20;;;13.80;99.90;;;;;;6151112;28;20055;-68
2022/06/20 02:07:44;;;;;;;20.00;2.22;;;13.80;99.90;;;;;;6149855;29;20460;-68
2022/06/20 02:10:52;;;;;;;8.50;1.98;;;13.70;99.90;;;;;;6148209;29;20047;-68
2022/06/20 02:14:01;;;;;;;8.15;1.88;;;13.70;99.90;;;;;;6150313;28;20142;-68
2022/06/20 02:17:07;;;;;;;7.15;2.10;;;13.70;99.90;;;;;;6141067;29;20054;-68
2022/06/20 02:20:13;;;;;;;8.43;2.28;;;13.60;99.90;;;;;;6136306;29;20051;-68
2022/06/20 02:23:17;;;;;;;7.85;1.95;;;13.60;99.90;;;;;;6149039;29;20154;-68
2022/06/20 02:26:24;;;;;;;6.22;1.80;;;13.50;99.90;;;;;;6139198;28;20059;-68
2022/06/20 02:29:27;;;;;;;6.18;2.10;;;13.50;99.90;;;;;;6130955;29;20511;-68
2022/06/20 02:32:33;;;;;;;6.15;2.10;;;13.40;99.90;;;;;;6149772;28;20488;-68
2022/06/20 02:35:36;;;;;;;8.00;2.22;;;13.50;99.90;;;;;;6131479;29;20146;-68
2022/06/20 02:38:38;;;;;;;8.43;2.20;;;13.40;99.90;;;;;;6148770;28;20066;-68
2022/06/20 02:41:42;;;;;;;6.25;2.20;;;13.40;99.90;;;;;;6147312;28;20054;-68
2022/06/20 02:44:45;;;;;;;;;;;13.30;99.90;;;;;;6150340;28;20058;-68
2022/06/20 02:47:53;;;;;;;9.30;2.03;;;13.40;99.90;;;;;;6148670;29;20371;-68
2022/06/20 02:50:58;;;;;;;9.63;2.22;;;13.50;99.90;;;;;;6147349;28;20478;-68
2022/06/20 02:54:03;;;;;;;7.63;2.00;;;13.60;99.90;;;;;;6141266;29;20394;-68
2022/06/20 02:57:12;;;;;;;8.30;2.05;;;13.60;99.90;;;;;;6143699;29;20047;-68
2022/06/20 03:00:20;;;;;;;10.45;2.13;;;13.50;99.90;;;;;;6137222;29;20058;-68
2022/06/20 03:03:27;;;;;;;7.85;2.15;;;13.30;99.90;;;;;;6138250;29;20050;-68
2022/06/20 03:06:38;;;;;;;6.30;1.77;;;13.20;99.90;;;;;;6147300;29;20051;-68
2022/06/20 03:09:43;;;;;;;7.18;1.92;;;13.20;99.90;;;;;;6130779;28;20043;-68
2022/06/20 03:12:45;;;;;;;10.27;1.98;;;13.20;99.90;;;;;;6149667;28;20050;-68
2022/06/20 03:15:51;;;;;;;8.30;2.30;;;13.30;99.90;;;;;;6148989;28;20159;-68
2022/06/20 03:18:55;;;;;;;9.15;2.08;;;13.20;99.90;;;;;;6148351;29;20055;-68
2022/06/20 03:22:00;;;;;;;6.75;1.77;;;13.20;99.90;;;;;;6148303;28;20054;-68
2022/06/20 03:25:04;;;;;;;8.85;2.58;;;13.10;99.90;;;;;;6133769;28;20413;-68
2022/06/20 03:28:06;;;;;;;10.00;2.22;;;13.00;99.90;;;;;;6125933;29;20390;-68
2022/06/20 03:31:11;;;;;;;7.10;1.63;;;12.90;99.90;;;;;;6136559;29;20047;-68
2022/06/20 03:34:14;;;;;;;5.07;1.90;;;12.90;99.90;;;;;;6149121;28;20043;-68
2022/06/20 03:37:16;;;;;;;6.40;1.47;;;12.90;99.90;;;;;;6148411;28;20058;-68
2022/06/20 03:40:19;;;;;;;9.10;1.88;;;12.90;99.90;;;;;;6148359;28;20051;-67
2022/06/20 03:43:24;;;;;;;6.90;2.03;;;12.90;99.90;;;;;;6138522;28;20054;-67
2022/06/20 03:46:31;;;;;;;4.85;1.60;;;12.90;99.90;;;;;;6154010;28;20414;-67
2022/06/20 03:49:37;;;;;;;8.80;1.95;;;13.00;99.90;;;;;;6152832;29;20047;-67
2022/06/20 03:52:43;;;;;;;6.75;1.70;;;13.10;99.90;;;;;;6151951;28;20570;-67
2022/06/20 03:55:52;;;;;;;8.73;2.35;;;13.10;99.90;;;;;;6151586;28;20412;-68
2022/06/20 03:59:02;;;;;;;8.38;2.03;;;13.00;99.90;;;;;;6144735;29;20055;-67
2022/06/20 04:02:11;;;;;;;8.90;2.33;;;13.10;99.90;;;;;;6146419;29;20054;-67
2022/06/20 04:05:19;;;;;;;7.93;2.20;;;13.10;99.90;;;;;;6153715;28;20048;-67
2022/06/20 04:10:57;;;;;;;9.85;2.20;;;13.10;99.90;;;;;;6151746;29;20059;-67
2022/06/20 04:12:08;;;;;;;14.25;3.00;;;13.10;99.90;;;;;;6140121;29;20055;-67
2022/06/20 04:15:14;;;;;;;9.93;1.92;;;13.10;99.90;;;;;;6151367;29;20536;-67
2022/06/20 04:18:31;;;;;;;8.93;2.42;;;13.10;99.90;;;;;;6153152;28;20085;-67
2022/06/20 04:21:37;;;;;;;9.93;2.08;;;13.10;99.90;;;;;;6145957;28;20242;-67
2022/06/20 04:24:51;;;;;;;12.07;2.38;;;13.20;99.90;;;;;;6129630;29;20599;-67
2022/06/20 04:27:58;;;;;;;10.48;2.10;;;13.20;99.90;;;;;;6153318;28;20047;-67
2022/06/20 04:31:08;;;;;;;5.13;1.70;;;13.20;99.90;;;;;;6151702;28;20055;-67
2022/06/20 04:34:16;;;;;;;7.10;2.30;;;13.30;99.90;;;;;;6143174;28;20492;-67
2022/06/20 04:37:24;;;;;;;9.57;2.10;;;13.50;99.90;;;;;;6151130;29;20058;-68
2022/06/20 04:40:29;;;;;;;9.88;2.78;;;13.40;99.90;;;;;;6150379;28;20047;-67
2022/06/20 04:43:37;;;;;;;9.32;2.53;;;13.40;99.90;;;;;;6150155;28;20051;-67
2022/06/20 04:46:44;;;;;;;10.63;2.58;;;13.40;99.90;;;;;;6152398;28;20051;-67
2022/06/20 04:49:48;;;;;;;7.80;2.05;;;13.50;99.90;;;;;;6146068;28;20052;-67
2022/06/20 04:52:53;;;;;;;9.60;2.75;;;13.50;99.90;;;;;;6145773;29;20462;-67
2022/06/20 04:55:57;;;;;;;9.40;2.78;;;13.70;99.90;;;;;;6150995;28;20067;-67
2022/06/20 04:59:06;;;;;;;8.68;2.88;;;13.70;99.90;;;;;;6151745;29;20062;-67
2022/06/20 05:02:16;;;;;;;12.02;2.90;;;13.80;99.90;;;;;;6147694;28;20059;-68
2022/06/20 05:05:24;;;;;;;13.27;3.17;;;13.90;99.90;;;;;;6150569;29;20063;-68
2022/06/20 05:08:29;;;;;;;12.55;3.20;;;14.10;99.90;;;;;;6131316;29;20055;-68
2022/06/20 05:11:35;;;;;;;8.55;2.88;;;14.30;99.90;;;;;;6133902;28;20050;-67
2022/06/20 05:14:44;;;;;;;10.98;2.90;;;14.50;99.90;;;;;;6149987;29;20412;-67
2022/06/20 05:17:48;;;;;;;8.15;2.75;;;14.90;99.90;;;;;;6150139;29;20492;-68
2022/06/20 05:20:53;;;;;;;5.90;2.30;;;15.10;99.90;;;;;;6140650;28;20512;-67
2022/06/20 05:23:58;;;;;;;9.48;3.42;;;15.10;99.90;;;;;;6149147;28;20047;-67
2022/06/20 05:27:07;;;;;;;9.60;2.70;;;15.10;99.90;;;;;;6150268;29;20063;-67
2022/06/20 05:30:16;;;;;;;10.80;2.83;;;15.00;99.90;;;;;;6151966;28;20543;-67
2022/06/20 05:33:25;;;;;;;9.88;2.90;;;14.90;99.90;;;;;;6148476;29;20485;-67
2022/06/20 05:36:39;;;;;;;10.68;2.75;;;14.90;99.90;;;;;;6128112;29;20051;-67
2022/06/20 05:39:45;;;;;;;6.15;2.10;;;14.90;99.90;;;;;;6135801;29;20059;-69
2022/06/20 05:42:47;;;;;;;9.40;2.75;;;14.90;99.90;;;;;;6149391;28;20052;-68
2022/06/20 05:45:51;;;;;;;9.32;2.65;;;14.90;99.90;;;;;;6150048;29;20058;-65
2022/06/20 05:48:56;;;;;;;12.30;2.90;;;15.00;99.90;;;;;;6151245;28;20047;-68
2022/06/20 05:52:00;;;;;;;10.60;2.78;;;15.00;99.90;;;;;;6149767;28;20393;-68
2022/06/20 05:55:06;;;;;;;12.32;3.17;;;14.90;99.90;;;;;;6151394;28;20058;-67
2022/06/20 05:58:11;;;;;;;12.52;3.03;;;14.80;99.90;;;;;;6148871;29;20062;-69
2022/06/20 06:01:16;;;;;;;10.00;3.20;;;14.80;99.90;;;;;;6149603;29;20050;-69
2022/06/20 06:04:32;;;;;;;13.70;3.33;;;15.00;99.90;;;;;;6147802;28;20050;-66
2022/06/20 06:07:39;;;;;;;11.68;3.67;;;15.30;99.90;;;;;;6149534;28;20051;-66
2022/06/20 06:10:46;;;;;;;12.63;3.45;;;15.70;99.90;;;;;;6149530;29;20047;-69
2022/06/20 06:13:53;;;;;;;16.77;4.00;;;15.80;99.90;;;;;;6145168;28;21512;-67
2022/06/20 06:17:01;;;;;;;15.80;4.18;;;15.60;99.90;;;;;;6136909;28;20058;-67
2022/06/20 06:20:11;;;;;;;17.27;4.22;;;15.70;99.90;;;;;;6145508;29;20059;-66
2022/06/20 06:23:16;;;;;;;11.57;3.65;;;16.10;99.90;;;;;;6131989;28;20484;-67
2022/06/20 06:26:19;;;;;;;9.45;2.97;;;16.20;99.90;;;;;;6138224;29;20050;-66
2022/06/20 06:29:25;;;;;;;8.45;2.53;;;16.30;99.90;;;;;;6142631;28;20497;-66
2022/06/20 06:32:32;;;;;;;9.90;2.80;;;16.40;99.90;;;;;;6144536;28;20043;-66
2022/06/20 06:35:38;;;;;;;6.97;2.72;;;16.40;99.90;;;;;;6147235;29;20485;-66
2022/06/20 06:38:45;;;;;;;9.63;2.50;;;16.90;99.90;;;;;;6148403;28;20055;-67
2022/06/20 06:41:51;;;;;;;8.05;3.33;;;17.30;99.90;;;;;;6147366;28;20142;-66
2022/06/20 06:44:54;;;;;;;12.77;3.33;;;17.30;99.90;;;;;;6149597;28;20051;-66
2022/06/20 06:48:01;;;;;;;8.70;3.20;;;17.20;99.90;;;;;;6149581;28;20050;-66
2022/06/20 06:51:08;;;;;;;11.48;3.25;;;17.00;99.90;;;;;;6146134;28;20557;-67
2022/06/20 06:54:16;;;;;;;9.95;2.80;;;16.30;99.90;;;;;;6140813;29;20051;-67
2022/06/20 06:57:22;;;;;;;9.55;3.13;;;16.10;99.90;;;;;;6149277;28;20055;-66
2022/06/20 07:00:29;;;;;;;10.15;2.53;;;16.00;99.90;;;;;;6146516;29;20043;-67
2022/06/20 07:03:37;;;;;;;11.15;3.50;;;16.10;99.90;;;;;;6147893;28;20051;-66
2022/06/20 07:06:45;;;;;;;9.23;3.40;;;16.50;99.90;;;;;;6135182;29;20047;-66
2022/06/20 07:09:50;;;;;;;11.88;3.58;;;16.90;99.90;;;;;;6127251;29;20078;-66
2022/06/20 07:12:55;;;;;;;11.75;3.55;;;17.50;99.90;;;;;;6145975;29;20083;-67
2022/06/20 07:16:01;;;;;;;11.80;3.05;;;18.20;99.90;;;;;;6146756;29;20550;-67
2022/06/20 07:19:08;;;;;;;12.52;3.50;;;18.10;99.90;;;;;;6145172;28;20051;-69
2022/06/20 07:22:12;;;;;;;10.38;3.28;;;17.80;99.90;;;;;;6139748;28;20050;-67
2022/06/20 07:25:19;;;;;;;11.57;3.00;;;17.70;99.90;;;;;;6147564;29;20051;-67
2022/06/20 07:28:34;;;;;;;8.70;2.63;;;18.00;99.90;;;;;;6147255;28;20496;-66
2022/06/20 07:31:39;;;;;;;5.75;2.40;;;18.20;99.90;;;;;;6136216;28;20051;-67
2022/06/20 07:34:45;;;;;;;9.88;2.90;;;18.50;99.90;;;;;;6148215;28;20047;-68
2022/06/20 07:37:51;;;;;;;7.15;2.28;;;18.90;99.90;;;;;;6144252;28;20079;-66
2022/06/20 07:40:58;;;;;;;6.53;2.38;;;19.00;99.90;;;;;;6143335;29;20055;-66
2022/06/20 07:44:06;;;;;;;11.82;2.88;;;18.60;99.90;;;;;;6140845;29;20052;-67
2022/06/20 07:47:16;;;;;;;8.27;2.70;;;17.60;99.90;;;;;;6144268;29;20054;-68
2022/06/20 07:50:22;;;;;;;7.65;2.70;;;17.00;99.90;;;;;;6145535;29;20051;-67
2022/06/20 07:53:31;;;;;;;12.57;3.10;;;16.90;99.90;;;;;;6146946;28;20050;-68
2022/06/20 07:56:39;;;;;;;12.32;3.00;;;16.90;99.90;;;;;;6143376;28;20043;-67
2022/06/20 07:59:46;;;;;;;8.90;2.30;;;17.10;99.90;;;;;;6147005;28;20043;-67
2022/06/20 08:02:52;;;;;;;8.57;2.38;;;17.30;99.90;;;;;;6149133;28;20058;-67
2022/06/20 08:05:59;;;;;;;9.93;2.60;;;17.30;99.90;;;;;;6145906;29;20540;-68
2022/06/20 08:09:06;;;;;;;11.13;2.83;;;17.00;99.90;;;;;;6145435;29;20050;-67
2022/06/20 08:12:18;;;;;;;9.93;3.05;;;17.00;99.90;;;;;;6144642;29;20057;-69
2022/06/20 08:15:25;;;;;;;8.43;1.90;;;16.70;99.90;;;;;;6140596;29;20056;-67
2022/06/20 08:18:29;;;;;;;6.70;1.85;;;16.80;99.90;;;;;;6139593;28;20393;-66
2022/06/20 08:21:35;;;;;;;8.07;2.55;;;16.90;99.90;;;;;;6145916;28;20050;-66
2022/06/20 08:24:46;;;;;;;5.72;1.70;;;17.60;99.90;;;;;;6146365;28;20469;-67
2022/06/20 08:27:54;;;;;;;5.82;1.88;;;17.80;99.90;;;;;;6147813;28;20432;-67
2022/06/20 08:31:03;;;;;;;7.60;1.80;;;17.60;99.90;;;;;;6142765;28;20055;-67
2022/06/20 08:34:11;;;;;;;7.22;1.67;;;17.80;99.90;;;;;;6141083;29;20484;-68
2022/06/20 08:37:26;;;;;;;7.43;2.15;;;17.80;99.90;;;;;;6147158;28;20126;-68
2022/06/20 08:40:56;;;;;;;6.70;1.90;;;17.90;99.90;;;;;;6147447;28;20062;-69
2022/06/20 08:44:34;;;;;;;6.60;1.60;;;18.00;99.90;;;;;;6147352;28;20083;-67
2022/06/20 08:48:08;;;;;;;5.35;1.90;;;18.00;99.90;;;;;;6150904;28;20044;-67
2022/06/20 08:52:06;;;;;;;5.07;1.52;;;18.00;99.90;;;;;;6148818;29;20070;-67
2022/06/20 08:55:35;;;;;;;5.18;1.85;;;17.80;99.90;;;;;;6146484;29;20044;-67
2022/06/20 08:58:48;;;;;;;3.42;1.40;;;18.10;99.90;;;;;;6149582;29;20086;-67
2022/06/20 09:02:04;;;;;;;4.07;1.40;;;18.20;99.90;;;;;;6150366;28;20053;-67
2022/06/20 09:05:23;;;;;;;4.90;1.15;;;18.50;99.90;;;;;;6139116;29;20052;-69
2022/06/20 09:08:38;;;;;;;4.22;1.35;;;18.40;99.90;;;;;;6150766;28;20043;-67
2022/06/20 09:12:01;;;;;;;3.92;1.17;;;18.30;99.70;;;;;;6149853;29;20051;-68
2022/06/20 09:15:36;;;;;;;6.82;1.20;;;18.20;99.90;;;;;;6147627;29;20043;-68
2022/06/20 09:18:53;;;;;;;8.23;1.73;;;17.70;99.90;;;;;;6150866;28;20054;-68
2022/06/20 09:22:03;;;;;;;6.63;2.00;;;17.60;99.90;;;;;;6142370;29;20382;-68
2022/06/20 09:25:17;;;;;;;7.03;2.05;;;17.40;99.90;;;;;;6145688;29;20053;-67
2022/06/20 09:28:44;;;;;;;5.10;1.50;;;17.40;99.90;;;;;;6149939;29;20082;-67
2022/06/20 09:32:17;;;;;;;5.55;1.67;;;17.50;99.90;;;;;;6150218;29;20551;-67
2022/06/20 09:35:41;;;;;;;5.38;1.67;;;17.80;99.90;;;;;;6147620;29;20044;-67
2022/06/20 09:39:22;;;;;;;4.60;1.45;;;18.00;99.90;;;;;;6141566;29;20055;-68
2022/06/20 09:42:35;;;;;;;6.60;1.60;;;18.00;99.90;;;;;;6081193;29;21025;-68
2022/06/20 09:45:44;;;;;;;4.60;1.70;;;18.00;99.90;;;;;;6150148;29;20062;-68
2022/06/20 09:48:54;;;;;;;7.20;1.90;;;18.10;99.90;;;;;;6149742;28;20090;-69
2022/06/20 09:52:07;;;;;;;4.63;1.75;;;17.80;99.90;;;;;;6149817;28;20054;-68
2022/06/20 09:55:21;;;;;;;6.75;1.48;;;17.80;99.90;;;;;;6148509;29;20055;-68
2022/06/20 09:58:30;;;;;;;5.25;1.63;;;18.00;99.90;;;;;;6142659;29;20501;-68
2022/06/20 10:01:37;;;;;;;7.20;1.95;;;18.10;99.90;;;;;;6150632;28;20163;-68
2022/06/20 10:04:45;;;;;;;7.20;2.00;;;18.00;99.90;;;;;;6148348;29;20488;-68
2022/06/20 10:07:55;;;;;;;4.53;1.50;;;18.30;99.90;;;;;;6147108;28;20051;-69
2022/06/20 10:11:01;;;;;;;5.35;1.58;;;18.70;99.90;;;;;;6148713;28;20055;-68
2022/06/20 10:14:11;;;;;;;6.63;1.60;;;19.00;99.90;;;;;;6134669;28;20055;-67
2022/06/20 10:17:22;;;;;;;6.03;1.70;;;18.90;99.70;;;;;;6141339;29;20039;-68
2022/06/20 10:20:34;;;;;;;4.82;1.27;;;18.40;99.40;;;;;;6149372;28;20467;-67
2022/06/20 10:24:05;;;;;;;5.15;1.67;;;18.50;99.90;;;;;;6144775;29;20047;-66
2022/06/20 10:27:22;;;;;;;6.03;1.90;;;18.30;99.90;;;;;;6144169;28;20070;-67
2022/06/20 10:30:38;;;;;;;3.45;1.48;;;17.70;99.90;;;;;;6135766;29;20047;-66
2022/06/20 10:33:52;;;;;;;5.28;1.50;;;18.00;99.90;;;;;;6145928;29;20062;-66
2022/06/20 10:36:58;;;;;;;;;;;18.30;99.90;;;;;;6144362;29;20496;-68
2022/06/20 10:40:11;;;;;;;5.93;1.90;;;18.40;99.90;;;;;;6146605;29;19929;-66
2022/06/20 10:43:24;;;;;;;7.03;1.67;;;18.50;99.90;;;;;;6148101;29;20126;-67
2022/06/20 10:46:34;;;;;;;3.13;1.23;;;18.70;99.80;;;;;;6147199;28;20055;-66
2022/06/20 10:49:57;;;;;;;4.00;1.30;;;18.80;98.70;;;;;;6146824;28;20043;-66
2022/06/20 10:53:10;;;;;;;8.88;1.70;;;18.90;99.90;;;;;;6148693;28;20055;-67
2022/06/20 10:56:24;;;;;;;2.50;1.27;;;18.30;99.90;;;;;;6147037;28;20054;-67
2022/06/20 10:59:44;;;;;;;5.10;1.27;;;18.40;99.80;;;;;;6147282;28;20491;-67
2022/06/20 11:03:05;;;;;;;4.03;1.55;;;19.00;99.90;;;;;;6147319;29;20055;-68
2022/06/20 11:06:17;;;;;;;4.55;1.50;;;18.50;98.70;;;;;;6142675;29;20047;-66
2022/06/20 11:09:26;;;;;;;4.45;1.50;;;18.20;99.90;;;;;;6139630;29;20054;-66
2022/06/20 11:12:41;;;;;;;4.40;1.50;;;18.40;99.90;;;;;;6146931;28;20070;-66
2022/06/20 11:15:50;;;;;;;5.60;1.50;;;18.80;99.90;;;;;;6136572;28;20054;-67
2022/06/20 11:19:01;;;;;;;4.72;1.30;;;18.80;99.60;;;;;;6146389;29;20047;-67
2022/06/20 11:22:19;;;;;;;6.85;1.40;;;18.60;98.40;;;;;;6134528;28;20062;-67
2022/06/20 11:25:38;;;;;;;7.35;1.88;;;18.60;98.10;;;;;;6145576;29;20047;-68
2022/06/20 11:29:10;;;;;;;3.65;1.00;;;18.80;98.70;;;;;;6148934;28;20043;-67
2022/06/20 11:32:19;;;;;;;2.55;1.33;;;19.00;98.20;;;;;;6140197;28;20389;-66
2022/06/20 11:35:37;;;;;;;4.38;1.58;;;19.10;99.90;;;;;;6148100;28;20044;-67
2022/06/20 11:39:00;;;;;;;4.45;1.38;;;19.10;99.10;;;;;;6140036;28;20083;-67
2022/06/20 11:42:23;;;;;;;4.17;1.27;;;19.30;99.40;;;;;;6147134;29;20607;-67
2022/06/20 11:45:54;;;;;;;4.95;1.40;;;19.50;98.20;;;;;;6139829;29;20044;-66
2022/06/20 11:49:10;;;;;;;4.32;1.80;;;19.50;99.00;;;;;;6133810;28;20048;-67
2022/06/20 11:52:21;;;;;;;4.95;1.50;;;19.60;99.60;;;;;;6145229;28;20048;-67
2022/06/20 11:55:30;;;;;;;4.97;1.65;;;19.60;98.30;;;;;;6144030;28;20059;-67
2022/06/20 11:58:51;;;;;;;5.50;1.83;;;19.70;98.10;;;;;;6147061;29;20051;-67
2022/06/20 12:02:05;;;;;;;6.30;1.70;;;19.40;98.60;;;;;;6147732;28;20126;-68
2022/06/20 12:05:28;;;;;;;5.57;1.38;;;19.20;97.40;;;;;;6139684;28;20569;-68
2022/06/20 12:08:44;;;;;;;4.88;1.63;;;19.00;99.50;;;;;;6142549;28;20043;-66
2022/06/20 12:12:02;;;;;;;5.63;1.75;;;19.40;99.20;;;;;;6148163;29;20055;-66
2022/06/20 12:15:28;;;;;;;3.08;1.42;;;19.50;98.10;;;;;;6145310;29;20051;-66
2022/06/20 12:23:18;;;;;;;3.25;1.40;;;19.60;97.30;;;;;;6148235;29;20058;-68
2022/06/20 12:25:38;;;;;;;6.97;1.55;;;19.40;98.80;;;;;;6135556;29;20054;-69
2022/06/20 12:28:43;;;;;;;11.93;1.75;;;19.70;97.00;;;;;;6145608;28;20054;-67
2022/06/20 12:31:48;;;;;;;5.97;1.65;;;19.40;97.80;;;;;;6146941;29;20058;-68
2022/06/20 12:34:57;;;;;;;4.20;1.73;;;19.30;98.50;;;;;;6151198;29;20079;-67
2022/06/20 12:38:04;;;;;;;5.30;1.63;;;19.20;98.40;;;;;;6150808;28;20047;-68
2022/06/20 12:41:11;;;;;;;7.65;1.60;;;18.70;97.60;;;;;;6151176;29;20417;-68
2022/06/20 12:44:36;;;;;;;3.58;1.75;;;18.40;98.90;;;;;;6150338;29;20039;-67
2022/06/20 12:48:00;;;;;;;5.78;1.70;;;18.60;99.90;;;;;;6143877;29;20059;-68
2022/06/20 12:51:10;;;;;;;4.55;1.60;;;19.00;99.70;;;;;;6148086;28;20126;-67
2022/06/20 12:54:30;;;;;;;5.22;1.67;;;19.10;99.50;;;;;;6145770;29;20058;-68
2022/06/20 12:57:53;;;;;;;4.80;1.50;;;19.20;98.30;;;;;;6149141;28;20114;-67
2022/06/20 13:00:58;;;;;;;8.80;1.50;;;19.40;98.30;;;;;;6143553;28;20121;-68
2022/06/20 13:04:14;;;;;;;3.90;1.40;;;19.50;97.30;;;;;;6144080;28;20051;-67
2022/06/20 13:07:38;;;;;;;4.30;1.63;;;19.20;98.30;;;;;;6142021;29;20385;-68
2022/06/20 13:10:52;;;;;;;5.13;1.73;;;18.70;99.10;;;;;;6141599;29;20055;-68
2022/06/20 13:14:40;;;;;;;6.10;1.98;;;18.30;99.90;;;;;;6147814;28;20055;-67
2022/06/20 13:17:50;;;;;;;6.05;2.15;;;17.90;99.90;;;;;;6100348;29;20127;-67
2022/06/20 13:21:03;;;;;;;6.63;2.10;;;17.80;99.90;;;;;;6083574;28;20537;-68
2022/06/20 13:24:31;;;;;;;6.20;1.80;;;17.60;99.90;;;;;;6150834;28;20137;-66
2022/06/20 13:27:45;;;;;;;4.30;1.73;;;17.50;99.90;;;;;;6140291;29;20047;-67
2022/06/20 13:30:59;;;;;;;7.25;1.83;;;17.50;99.90;;;;;;6150811;29;20500;-67
2022/06/20 13:34:12;;;;;;;6.55;2.58;;;17.40;99.90;;;;;;6149652;29;20048;-66
2022/06/20 13:37:24;;;;;;;4.82;1.90;;;17.50;99.90;;;;;;6144547;28;20174;-66
2022/06/20 13:40:44;;;;;;;8.68;2.30;;;17.40;99.90;;;;;;6146851;29;20070;-67
2022/06/20 13:43:58;;;;;;;6.28;2.10;;;17.30;99.90;;;;;;6146579;29;20047;-67
2022/06/20 13:47:18;;;;;;;3.45;1.73;;;17.40;99.90;;;;;;6149047;29;20055;-68
2022/06/20 13:50:26;;;;;;;6.00;2.15;;;17.50;99.90;;;;;;6138858;28;20055;-67
2022/06/20 13:53:35;;;;;;;9.48;2.75;;;17.50;99.90;;;;;;6139342;29;20051;-67
2022/06/20 13:56:44;;;;;;;6.57;2.40;;;17.40;99.90;;;;;;6146362;29;20133;-66
2022/06/20 13:59:56;;;;;;;5.38;1.95;;;17.50;99.90;;;;;;6146702;29;20051;-67
2022/06/20 14:03:16;;;;;;;6.43;1.67;;;17.90;99.90;;;;;;6141388;28;20059;-67
2022/06/20 14:06:22;;;;;;;11.45;1.73;;;18.30;99.90;;;;;;6148687;29;20043;-68
2022/06/20 14:09:26;;;;;;;8.05;2.00;;;18.50;99.90;;;;;;6144241;29;20043;-67
2022/06/20 14:12:33;;;;;;;8.55;2.05;;;18.60;99.90;;;;;;6143553;28;20523;-67
2022/06/20 14:15:37;;;;;;;5.55;2.15;;;18.70;99.90;;;;;;6148472;29;20056;-66
2022/06/20 14:18:39;;;;;;;;;;;18.60;99.90;;;;;;6146313;28;20055;-67
2022/06/20 14:21:45;;;;;;;4.72;1.42;;;18.50;99.90;;;;;;6147879;28;19922;-66
2022/06/20 14:24:49;;;;;;;5.85;1.70;;;18.70;99.90;;;;;;6148640;28;20523;-67
2022/06/20 14:27:55;;;;;;;5.28;1.80;;;18.80;99.90;;;;;;6146120;28;20054;-68
2022/06/20 14:31:03;;;;;;;4.95;1.50;;;18.60;99.90;;;;;;6147283;28;20403;-68
2022/06/20 14:34:13;;;;;;;7.47;1.77;;;18.70;99.90;;;;;;6137341;29;20043;-68
2022/06/20 14:37:18;;;;;;;7.03;1.67;;;18.90;99.90;;;;;;6147719;29;20059;-68
2022/06/20 14:40:25;;;;;;;4.72;1.58;;;18.70;99.90;;;;;;6138142;29;20413;-68
2022/06/20 14:43:42;;;;;;;7.13;1.77;;;18.60;99.70;;;;;;6141252;28;20424;-67
2022/06/20 14:46:51;;;;;;;5.57;1.70;;;18.60;99.50;;;;;;6135372;29;20047;-68
2022/06/20 14:49:58;;;;;;;7.55;1.80;;;18.80;99.80;;;;;;6148894;28;20074;-68
2022/06/20 14:53:06;;;;;;;5.22;1.38;;;18.70;99.90;;;;;;6147208;29;20050;-69
2022/06/20 14:56:12;;;;;;;2.58;1.30;;;19.10;99.90;;;;;;6147421;29;20047;-69
2022/06/20 14:59:27;;;;;;;3.65;1.52;;;19.40;99.90;;;;;;6145760;28;20059;-68
2022/06/20 15:02:36;;;;;;;4.38;1.38;;;19.50;99.70;;;;;;6137257;29;20070;-68
2022/06/20 15:05:50;;;;;;;4.10;1.65;;;19.40;99.20;;;;;;6147578;28;20477;-68
2022/06/20 15:09:02;;;;;;;5.10;1.60;;;19.40;99.90;;;;;;6144755;29;20536;-67
2022/06/20 15:12:22;;;;;;;6.93;2.08;;;19.50;99.90;;;;;;6144952;28;20054;-68
2022/06/20 15:15:32;;;;;;;4.22;1.60;;;19.40;99.90;;;;;;6141786;28;20051;-69
2022/06/20 15:18:47;;;;;;;6.35;2.15;;;19.10;99.60;;;;;;6138843;28;20051;-68
2022/06/20 15:21:53;;;;;;;6.13;1.85;;;18.80;99.90;;;;;;6145837;29;20059;-68
2022/06/20 15:25:03;;;;;;;6.10;2.03;;;18.60;99.90;;;;;;6144869;28;20050;-68
2022/06/20 15:28:12;;;;;;;6.47;1.88;;;18.30;99.90;;;;;;6125124;28;20058;-70
2022/06/20 15:31:18;;;;;;;8.35;1.85;;;18.40;99.90;;;;;;6141131;28;20047;-70
2022/06/20 15:34:29;;;;;;;7.22;1.98;;;18.20;99.90;;;;;;6136446;28;20143;-68
2022/06/20 15:37:32;;;;;;;9.18;2.20;;;18.00;99.90;;;;;;6144066;29;20468;-67
2022/06/20 15:40:36;;;;;;;;;;;17.70;99.90;;;;;;6146668;28;20051;-67
2022/06/20 15:43:43;;;;;;;6.47;1.85;;;17.80;99.90;;;;;;6147779;29;19930;-67
2022/06/20 15:46:53;;;;;;;4.93;2.00;;;18.00;99.50;;;;;;6149539;28;20058;-67
2022/06/20 15:50:03;;;;;;;5.20;1.73;;;18.10;99.90;;;;;;6149414;29;20066;-66
2022/06/20 15:53:23;;;;;;;5.75;1.95;;;18.30;99.90;;;;;;6137466;28;20417;-67
2022/06/20 15:56:32;;;;;;;6.80;1.98;;;18.40;98.20;;;;;;6144271;28;20062;-67
2022/06/20 15:59:54;;;;;;;6.22;1.75;;;18.40;99.10;;;;;;6151130;28;20048;-66
2022/06/20 16:03:15;;;;;;;10.30;2.42;;;18.10;99.90;;;;;;6141646;28;20178;-67
2022/06/20 16:06:28;;;;;;;8.40;3.00;;;18.00;99.90;;;;;;6146251;28;20048;-67
2022/06/20 16:09:43;;;;;;;5.05;1.67;;;17.60;99.90;;;;;;6146840;28;20043;-66
2022/06/20 16:12:47;;;;;;;10.65;2.70;;;17.40;99.90;;;;;;6149709;29;20555;-66
2022/06/20 16:15:50;;;;;;;6.53;2.25;;;17.40;99.90;;;;;;6130937;29;20066;-66
2022/06/20 16:18:56;;;;;;;9.00;3.40;;;17.60;99.90;;;;;;6145921;28;20051;-67
2022/06/20 16:22:01;;;;;;;8.48;2.95;;;17.70;99.90;;;;;;6134854;29;20154;-67
2022/06/20 16:25:18;;;;;;;8.10;2.30;;;17.70;99.90;;;;;;6149257;29;20056;-67
2022/06/20 16:28:24;;;;;;;12.02;2.80;;;17.90;99.90;;;;;;6142945;28;20504;-69
2022/06/20 16:31:29;;;;;;;9.65;3.17;;;18.00;99.90;;;;;;6142854;28;20047;-69
2022/06/20 16:35:01;;;;;;;8.07;2.60;;;17.80;99.90;;;;;;6143355;29;20047;-70